Time;durP1;ratioP1;P1;durP2;ratioP2;P2;SDS_P1;SDS_P2;PMS_P1;PMS_P2;Temp;Humidity;BMP_temperature;BMP_pressure;BME280_temperature;BME280_humidity;BME280_pressure;Samples;Min_cycle;Max_cycle;Signal;HPM_P1;HPM_P2
2022/07/27 00:00:36;;;;;;;7.72;5.05;;;;;;;19.79;74.69;95158.23;1795092;80;21038;-65
2022/07/27 00:03:04;;;;;;;6.97;6.03;;;;;;;19.82;73.99;95155.83;1795263;80;20991;-65
2022/07/27 00:05:30;;;;;;;10.10;5.62;;;;;;;19.75;74.68;95141.10;1795328;80;21508;-65
2022/07/27 00:07:57;;;;;;;6.78;5.90;;;;;;;19.78;74.53;95145.81;1795372;80;20986;-65
2022/07/27 00:10:24;;;;;;;7.70;6.00;;;;;;;19.70;74.89;95145.39;1795569;80;20996;-65
2022/07/27 00:12:50;;;;;;;6.80;5.53;;;;;;;19.76;75.08;95146.37;1795778;80;20986;-65
2022/07/27 00:15:17;;;;;;;9.63;6.42;;;;;;;19.74;74.40;95144.75;1794996;80;21037;-65
2022/07/27 00:17:43;;;;;;;7.62;6.67;;;;;;;19.70;74.99;95157.44;1795420;80;20994;-65
2022/07/27 00:20:11;;;;;;;8.98;6.08;;;;;;;19.68;75.13;95151.34;1795065;80;20983;-65
2022/07/27 00:22:37;;;;;;;7.35;6.65;;;;;;;19.71;74.11;95156.51;1795351;80;21066;-65
2022/07/27 00:25:06;;;;;;;7.80;7.10;;;;;;;19.70;73.46;95160.60;1795440;80;21058;-65
2022/07/27 00:27:33;;;;;;;8.13;6.40;;;;;;;19.65;74.95;95155.49;1795454;80;21037;-65
2022/07/27 00:30:00;;;;;;;7.60;6.78;;;;;;;19.59;76.73;95162.09;1795395;80;20969;-65
2022/07/27 00:32:26;;;;;;;9.88;7.08;;;;;;;19.58;75.00;95165.73;1795065;80;21007;-65
2022/07/27 00:34:53;;;;;;;7.42;6.25;;;;;;;19.49;76.92;95172.97;1795429;80;20982;-65
2022/07/27 00:37:20;;;;;;;6.70;5.90;;;;;;;19.26;77.54;95174.35;1794739;80;21061;-65
2022/07/27 00:39:46;;;;;;;7.00;5.70;;;;;;;19.26;77.54;95174.35;1795423;80;21050;-65
2022/07/27 00:42:13;;;;;;;8.35;6.45;;;;;;;19.24;76.94;95181.12;1795348;80;21049;-65
2022/07/27 00:44:40;;;;;;;10.30;7.00;;;;;;;19.15;76.70;95187.48;1795426;80;20978;-65
2022/07/27 00:47:07;;;;;;;9.25;7.20;;;;;;;19.15;76.70;95187.48;1795304;80;21046;-65
2022/07/27 00:49:33;;;;;;;8.95;6.87;;;;;;;19.20;76.17;95184.06;1795643;80;21026;-65
2022/07/27 00:52:00;;;;;;;7.25;6.33;;;;;;;19.23;76.55;95193.27;1795098;80;21539;-65
2022/07/27 00:54:27;;;;;;;9.80;7.15;;;;;;;19.24;76.25;95195.83;1795523;80;21010;-65
2022/07/27 00:56:54;;;;;;;8.68;5.92;;;;;;;19.26;76.19;95187.73;1795346;80;21019;-65
2022/07/27 00:59:21;;;;;;;7.30;6.55;;;;;;;19.24;76.13;95196.31;1795501;80;20998;-65
2022/07/27 01:01:48;;;;;;;6.17;5.58;;;;;;;19.16;77.67;95201.26;1795699;80;21009;-65
2022/07/27 01:04:15;;;;;;;8.58;6.55;;;;;;;19.07;77.76;95203.12;1764536;80;21029;-65
2022/07/27 01:06:42;;;;;;;10.70;5.58;;;;;;;18.89;77.18;95199.70;1795117;80;21026;-65
2022/07/27 01:11:53;;;;;;;7.12;5.53;;;;;;;18.94;76.06;95215.86;1795484;80;21022;-65
2022/07/27 01:14:20;;;;;;;7.40;6.47;;;;;;;18.90;75.58;95204.09;1795455;80;21034;-65
2022/07/27 01:16:47;;;;;;;9.90;6.17;;;;;;;18.71;77.20;95198.92;1795429;80;21074;-65
2022/07/27 01:19:14;;;;;;;7.08;6.37;;;;;;;18.62;78.26;95211.45;1795604;80;21077;-65
2022/07/27 01:21:40;;;;;;;8.80;5.90;;;;;;;18.59;76.75;95212.00;1795071;80;21082;-65
2022/07/27 01:24:07;;;;;;;6.92;5.83;;;;;;;18.62;76.70;95210.97;1795588;80;21458;-65
2022/07/27 01:26:35;;;;;;;6.10;5.50;;;;;;;18.52;76.73;95212.44;1795459;80;21046;-65
2022/07/27 01:29:02;;;;;;;8.03;6.12;;;;;;;18.42;77.38;95203.21;1795623;80;20983;-65
2022/07/27 01:31:29;;;;;;;7.67;6.87;;;;;;;18.32;77.76;95206.41;1795559;80;21018;-65
2022/07/27 01:33:57;;;;;;;9.75;6.78;;;;;;;18.26;77.67;95204.55;1795494;80;21011;-65
2022/07/27 01:36:24;;;;;;;7.20;6.50;;;;;;;18.23;78.16;95207.39;1795109;80;21018;-65
2022/07/27 01:38:51;;;;;;;7.80;6.83;;;;;;;18.16;78.68;95205.03;1795562;80;20956;-65
2022/07/27 01:41:17;;;;;;;10.13;7.37;;;;;;;18.11;78.50;95204.42;1795159;80;21520;-65
2022/07/27 01:43:45;;;;;;;9.03;8.08;;;;;;;18.11;78.81;95217.77;1795560;80;21002;-65
2022/07/27 01:46:11;;;;;;;12.13;7.40;;;;;;;18.05;79.39;95213.27;1795103;80;21126;-65
2022/07/27 01:48:38;;;;;;;8.33;6.70;;;;;;;18.01;79.34;95205.02;1795570;80;20987;-65
2022/07/27 01:51:05;;;;;;;7.60;6.80;;;;;;;17.92;78.94;95202.38;1795570;80;20967;-65
2022/07/27 01:53:32;;;;;;;7.37;5.97;;;;;;;17.93;78.71;95209.43;1795286;80;21457;-65
2022/07/27 01:55:58;;;;;;;7.28;6.58;;;;;;;17.94;78.19;95207.14;1795850;80;21102;-65
2022/07/27 01:58:25;;;;;;;7.60;6.90;;;;;;;17.93;78.35;95206.28;1795398;80;21107;-65
2022/07/27 02:00:52;;;;;;;8.25;6.45;;;;;;;17.93;78.50;95202.28;1795336;80;21019;-65
2022/07/27 02:03:18;;;;;;;7.55;6.75;;;;;;;17.95;79.31;95199.55;1795712;80;20999;-65
2022/07/27 02:05:45;;;;;;;10.80;6.60;;;;;;;17.89;78.63;95202.08;1795203;80;21011;-65
2022/07/27 02:08:12;;;;;;;9.38;6.45;;;;;;;17.88;79.66;95192.80;1795371;80;21006;-65
2022/07/27 02:12:34;;;;;;;8.10;6.90;;;;;;;17.86;78.89;95204.03;1795662;80;20982;-65
2022/07/27 02:13:07;;;;;;;7.35;6.00;;;;;;;17.88;79.43;95206.15;1790858;80;21539;-65
2022/07/27 02:15:34;;;;;;;10.75;7.10;;;;;;;17.91;79.70;95206.83;1795507;80;21468;-65
2022/07/27 02:18:01;;;;;;;8.10;6.40;;;;;;;17.89;78.84;95207.86;1795328;80;21014;-65
2022/07/27 02:20:29;;;;;;;7.10;6.40;;;;;;;17.90;79.13;95208.27;1795519;80;21042;-65
2022/07/27 02:22:56;;;;;;;9.35;6.17;;;;;;;17.92;79.12;95208.58;1794854;80;21555;-65
2022/07/27 02:25:23;;;;;;;8.40;6.50;;;;;;;17.93;78.73;95205.43;1795459;80;21484;-65
2022/07/27 02:27:50;;;;;;;9.55;6.62;;;;;;;17.92;78.29;95216.58;1795423;80;21006;-65
2022/07/27 02:30:16;;;;;;;9.40;6.83;;;;;;;17.87;78.53;95211.97;1795507;80;20968;-65
2022/07/27 02:32:43;;;;;;;8.88;5.85;;;;;;;17.77;78.76;95216.03;1795250;80;21087;-65
2022/07/27 02:35:11;;;;;;;7.15;6.42;;;;;;;17.78;79.18;95215.08;1795506;80;21511;-65
2022/07/27 02:37:37;;;;;;;11.97;7.08;;;;;;;17.79;79.88;95220.83;1795404;80;20999;-65
2022/07/27 02:40:06;;;;;;;8.35;6.45;;;;;;;17.81;79.82;95218.09;1795603;80;21030;-65
2022/07/27 02:42:33;;;;;;;10.40;7.50;;;;;;;17.90;79.62;95212.27;1795348;80;21562;-65
2022/07/27 02:44:59;;;;;;;11.03;8.48;;;;;;;18.00;79.38;95216.17;1795375;80;21002;-65
2022/07/27 02:47:26;;;;;;;11.85;7.55;;;;;;;18.06;78.89;95220.31;1795268;80;20971;-65
2022/07/27 02:49:53;;;;;;;9.28;6.78;;;;;;;18.15;78.75;95222.50;1795160;80;21137;-65
2022/07/27 02:52:20;;;;;;;10.20;7.15;;;;;;;18.10;78.46;95220.06;1795374;80;21011;-65
2022/07/27 02:54:46;;;;;;;10.03;7.55;;;;;;;18.04;78.18;95220.41;1795449;80;21071;-65
2022/07/27 02:57:13;;;;;;;8.83;7.70;;;;;;;18.03;78.55;95225.82;1795344;80;21328;-65
2022/07/27 02:59:39;;;;;;;10.78;8.20;;;;;;;18.01;78.99;95219.70;1795583;80;21018;-65
2022/07/27 03:02:06;;;;;;;8.58;6.72;;;;;;;17.97;79.73;95220.80;1795353;80;21034;-65
2022/07/27 03:04:33;;;;;;;9.60;8.60;;;;;;;17.92;79.09;95219.25;1795206;80;21058;-65
2022/07/27 03:07:00;;;;;;;11.03;8.65;;;;;;;17.89;79.38;95218.53;1795487;80;20995;-65
2022/07/27 03:09:27;;;;;;;10.40;7.97;;;;;;;17.92;79.50;95219.25;1795421;80;21055;-65
2022/07/27 03:11:53;;;;;;;9.15;7.65;;;;;;;17.95;80.42;95222.23;1795375;80;21042;-65
2022/07/27 03:14:20;;;;;;;12.23;8.80;;;;;;;17.92;79.47;95217.92;1795206;80;21541;-65
2022/07/27 03:16:46;;;;;;;9.53;8.53;;;;;;;17.92;79.72;95221.06;1795136;80;21053;-65
2022/07/27 03:19:13;;;;;;;10.20;9.10;;;;;;;17.91;79.71;95217.51;1795364;80;21050;-65
2022/07/27 03:21:40;;;;;;;12.85;10.18;;;;;;;17.86;79.69;95219.56;1795126;80;21058;-65
2022/07/27 03:24:07;;;;;;;11.30;9.13;;;;;;;17.84;80.01;95217.48;1795365;80;21082;-65
2022/07/27 03:26:33;;;;;;;10.58;9.48;;;;;;;17.88;80.20;95221.69;1795281;80;21019;-65
2022/07/27 03:29:00;;;;;;;13.18;10.20;;;;;;;17.93;80.58;95223.64;1795098;80;21027;-65
2022/07/27 03:31:27;;;;;;;12.98;8.85;;;;;;;17.87;81.53;95228.45;1795408;80;20979;-65
2022/07/27 03:33:53;;;;;;;14.40;9.98;;;;;;;17.88;81.23;95225.69;1795300;80;21026;-65
2022/07/27 03:36:20;;;;;;;11.12;8.95;;;;;;;17.94;81.26;95235.16;1794981;80;21013;-65
2022/07/27 03:38:47;;;;;;;11.25;9.20;;;;;;;17.93;81.33;95229.45;1795387;80;21480;-65
2022/07/27 03:41:14;;;;;;;12.13;9.30;;;;;;;17.94;81.33;95235.16;1795689;80;21057;-65
2022/07/27 03:43:40;;;;;;;12.58;9.20;;;;;;;17.98;81.57;95232.73;1795503;80;20990;-65
2022/07/27 03:46:08;;;;;;;12.13;9.35;;;;;;;18.03;81.08;95236.02;1795430;80;20990;-65
2022/07/27 03:48:34;;;;;;;10.45;8.68;;;;;;;18.11;81.12;95233.80;1795558;80;20971;-65
2022/07/27 03:51:01;;;;;;;10.38;8.50;;;;;;;18.15;80.42;95230.50;1795686;80;20983;-65
2022/07/27 03:53:27;;;;;;;11.80;9.25;;;;;;;18.11;80.96;95235.13;1795140;80;21045;-65
2022/07/27 03:55:54;;;;;;;10.30;8.60;;;;;;;18.18;81.42;95238.34;1795374;80;21511;-65
2022/07/27 03:58:22;;;;;;;10.30;8.73;;;;;;;18.28;80.80;95232.03;1795118;80;21011;-65
2022/07/27 04:00:49;;;;;;;12.58;9.05;;;;;;;18.36;81.15;95234.66;1795205;80;21046;-65
2022/07/27 04:03:17;;;;;;;13.43;9.30;;;;;;;18.45;80.80;95235.98;1795105;80;21131;-65
2022/07/27 04:05:44;;;;;;;13.22;9.20;;;;;;;18.58;80.99;95235.68;1795498;80;20967;-65
2022/07/27 04:08:11;;;;;;;10.85;9.35;;;;;;;18.66;80.53;95239.73;1795149;80;21011;-65
2022/07/27 04:10:37;;;;;;;12.07;9.55;;;;;;;18.75;80.62;95242.79;1795674;80;21014;-65
2022/07/27 04:13:05;;;;;;;13.28;9.48;;;;;;;18.90;80.20;95247.75;1795302;80;21094;-65
2022/07/27 04:15:31;;;;;;;11.03;8.90;;;;;;;18.96;79.01;95234.02;1795200;80;21102;-65
2022/07/27 04:17:58;;;;;;;12.60;8.18;;;;;;;19.01;78.13;95243.12;1795452;80;20994;-65
2022/07/27 04:20:26;;;;;;;9.45;8.50;;;;;;;19.01;78.13;95243.12;1795452;80;20975;-65
2022/07/27 04:22:53;;;;;;;9.40;8.50;;;;;;;18.99;77.19;95249.02;1795111;80;21095;-65
2022/07/27 04:25:21;;;;;;;11.53;9.50;;;;;;;18.90;76.87;95255.77;1795615;80;21039;-65
2022/07/27 04:27:48;;;;;;;16.70;10.03;;;;;;;18.80;76.78;95250.08;1795388;80;21328;-65
2022/07/27 04:43:23;;;;;;;10.55;8.28;;;;;;;19.95;74.42;95248.31;1858299;77;22923;-65
2022/07/27 04:45:49;;;;;;;13.50;9.43;;;;;;;19.80;74.42;95252.30;1826488;78;20997;-65
2022/07/27 04:48:16;;;;;;;11.12;9.35;;;;;;;19.75;75.01;95254.39;1826671;78;21042;-65
2022/07/27 04:50:48;;;;;;;13.03;9.38;;;;;;;19.76;75.60;95253.94;1826655;78;21015;-65
2022/07/27 04:53:15;;;;;;;11.25;9.55;;;;;;;19.87;75.67;95263.02;1826945;78;20979;-65
2022/07/27 04:55:46;;;;;;;11.85;10.65;;;;;;;19.93;75.61;95267.13;1826930;78;21014;-65
2022/07/27 04:58:14;;;;;;;13.78;10.68;;;;;;;19.98;75.79;95266.86;1827291;78;20986;-65
2022/07/27 05:00:42;;;;;;;16.62;11.50;;;;;;;20.05;75.63;95266.39;1826797;78;21449;-65
2022/07/27 05:03:10;;;;;;;14.47;11.33;;;;;;;20.15;75.26;95268.03;1826995;78;20950;-65
2022/07/27 05:05:37;;;;;;;15.32;10.68;;;;;;;20.26;74.99;95270.04;1826656;78;20987;-65
2022/07/27 05:08:04;;;;;;;17.25;12.07;;;;;;;20.32;74.68;95267.00;1826851;78;21484;-65
2022/07/27 05:10:31;;;;;;;14.87;11.78;;;;;;;20.40;74.74;95268.72;1826613;78;21014;-65
2022/07/27 05:12:58;;;;;;;17.80;10.82;;;;;;;20.54;74.67;95262.50;1826828;78;21449;-65
2022/07/27 05:15:25;;;;;;;13.38;11.33;;;;;;;20.55;74.00;95261.56;1826820;78;21542;-65
2022/07/27 05:17:52;;;;;;;13.10;9.95;;;;;;;20.67;73.86;95262.62;1826661;78;21495;-65
2022/07/27 05:20:19;;;;;;;11.90;10.23;;;;;;;20.76;74.08;95268.71;1827142;78;20978;-65
2022/07/27 05:22:45;;;;;;;9.95;8.95;;;;;;;20.80;73.86;95264.89;1826812;78;20954;-65
2022/07/27 05:25:12;;;;;;;10.75;9.03;;;;;;;20.91;73.63;95272.23;1826426;78;21026;-65
2022/07/27 05:27:39;;;;;;;10.85;9.70;;;;;;;21.05;73.47;95269.53;1826511;78;21069;-65
2022/07/27 05:30:08;;;;;;;11.50;9.95;;;;;;;21.22;73.19;95271.57;1826687;78;21018;-66
2022/07/27 05:32:35;;;;;;;15.30;10.72;;;;;;;21.32;72.79;95268.70;1826853;78;21022;-65
2022/07/27 05:35:02;;;;;;;12.15;9.95;;;;;;;21.44;72.31;95273.73;1826795;78;21006;-66
2022/07/27 05:37:29;;;;;;;10.65;9.35;;;;;;;21.56;71.79;95275.61;1826972;78;20963;-66
2022/07/27 05:39:56;;;;;;;10.85;9.60;;;;;;;21.69;71.29;95278.33;1826954;78;21421;-66
2022/07/27 05:42:23;;;;;;;10.35;9.18;;;;;;;21.84;71.02;95281.31;1826508;78;21002;-66
2022/07/27 05:44:54;;;;;;;13.13;9.75;;;;;;;21.94;70.37;95286.92;1826326;78;21519;-66
2022/07/27 05:47:21;;;;;;;11.25;10.05;;;;;;;22.08;69.86;95277.44;1826340;78;21527;-66
2022/07/27 05:49:48;;;;;;;11.38;9.93;;;;;;;22.17;69.40;95274.58;1826054;78;21564;-66
2022/07/27 05:52:15;;;;;;;17.00;10.88;;;;;;;22.30;69.40;95274.62;1826478;78;21014;-66
2022/07/27 05:54:43;;;;;;;12.68;11.08;;;;;;;22.30;69.19;95271.93;1826302;78;21451;-66
2022/07/27 05:57:10;;;;;;;11.78;10.30;;;;;;;22.39;68.72;95271.30;1825995;78;21009;-66
2022/07/27 05:59:36;;;;;;;11.23;10.10;;;;;;;22.42;68.36;95267.04;1826278;78;21528;-66
2022/07/27 06:02:03;;;;;;;13.95;9.98;;;;;;;22.48;67.97;95276.03;1826382;78;21001;-66
2022/07/27 06:04:29;;;;;;;11.78;10.38;;;;;;;22.47;67.40;95271.61;1826350;78;20985;-66
2022/07/27 06:09:40;;;;;;;13.48;10.55;;;;;;;22.37;67.79;95263.33;1826342;78;21468;-66
2022/07/27 06:12:08;;;;;;;10.43;9.43;;;;;;;22.44;67.96;95265.11;1826094;78;20986;-65
2022/07/27 06:14:34;;;;;;;11.05;9.78;;;;;;;22.47;67.78;95277.84;1826296;78;20958;-66
2022/07/27 06:17:02;;;;;;;11.28;10.05;;;;;;;22.56;67.70;95271.45;1825882;78;21006;-66
2022/07/27 06:19:30;;;;;;;13.03;10.95;;;;;;;22.53;67.14;95280.59;1826279;78;21085;-66
2022/07/27 06:21:57;;;;;;;13.25;11.85;;;;;;;22.55;66.96;95279.12;1826391;78;21002;-66
2022/07/27 06:24:23;;;;;;;12.65;11.45;;;;;;;22.51;66.61;95280.33;1826095;78;21589;-66
2022/07/27 06:26:50;;;;;;;13.15;11.15;;;;;;;22.50;66.40;95283.97;1825766;78;21074;-66
2022/07/27 06:29:17;;;;;;;14.00;12.53;;;;;;;22.51;66.52;95290.59;1826521;78;20951;-66
2022/07/27 06:31:43;;;;;;;16.73;13.53;;;;;;;22.43;66.05;95295.17;1826179;78;21005;-66
2022/07/27 06:34:09;;;;;;;15.23;13.40;;;;;;;22.29;66.23;95287.20;1826344;78;20954;-66
2022/07/27 06:36:38;;;;;;;15.98;14.28;;;;;;;22.23;66.92;95291.67;1826376;78;21002;-65
2022/07/27 06:39:04;;;;;;;15.68;12.78;;;;;;;22.12;67.12;95286.98;1825841;78;20971;-66
2022/07/27 06:41:32;;;;;;;14.33;12.03;;;;;;;22.20;67.30;95290.52;1826473;78;20946;-66
2022/07/27 06:44:00;;;;;;;15.72;12.18;;;;;;;22.21;66.92;95295.80;1831739;78;21014;-66
2022/07/27 06:46:26;;;;;;;13.48;11.78;;;;;;;22.25;66.46;95289.72;1831819;78;21040;-65
2022/07/27 06:48:55;;;;;;;15.32;12.78;;;;;;;22.26;66.82;95291.45;1832030;78;20966;-66
2022/07/27 06:51:23;;;;;;;13.62;11.90;;;;;;;22.30;66.36;95298.80;1832161;78;20985;-66
2022/07/27 06:53:53;;;;;;;16.12;11.78;;;;;;;22.26;66.15;95298.17;1831616;78;21053;-66
2022/07/27 06:56:21;;;;;;;13.10;11.70;;;;;;;22.26;65.87;95296.83;1831964;78;20970;-65
2022/07/27 06:58:48;;;;;;;15.15;13.60;;;;;;;22.30;65.98;95303.73;1832076;78;21483;-66
2022/07/27 07:01:14;;;;;;;14.43;12.60;;;;;;;22.40;65.95;95305.26;1832000;78;20978;-66
2022/07/27 07:03:41;;;;;;;14.80;13.08;;;;;;;22.56;65.86;95292.47;1832042;78;21448;-66
2022/07/27 07:06:08;;;;;;;14.03;12.63;;;;;;;22.68;64.96;95294.78;1831675;78;21022;-66
2022/07/27 07:08:35;;;;;;;14.65;12.33;;;;;;;22.75;64.79;95293.84;1831799;78;20974;-65
2022/07/27 07:11:02;;;;;;;13.85;12.40;;;;;;;22.74;64.48;95294.83;1831864;78;21046;-66
2022/07/27 07:13:28;;;;;;;13.93;12.53;;;;;;;22.69;64.47;95296.49;1832090;78;21034;-66
2022/07/27 07:15:55;;;;;;;14.00;12.40;;;;;;;22.71;64.38;95297.25;1832145;78;20994;-66
2022/07/27 07:18:22;;;;;;;12.75;11.45;;;;;;;22.55;64.14;95302.83;1832058;78;20951;-66
2022/07/27 07:20:48;;;;;;;14.93;12.35;;;;;;;22.56;64.32;95304.58;1831745;78;21444;-66
2022/07/27 07:23:15;;;;;;;12.82;11.53;;;;;;;22.57;64.29;95308.97;1832230;78;21029;-65
2022/07/27 07:25:42;;;;;;;12.28;10.98;;;;;;;22.69;63.91;95304.07;1832022;78;20990;-66
2022/07/27 07:28:08;;;;;;;14.30;10.93;;;;;;;22.71;63.92;95307.16;1831774;78;21085;-66
2022/07/27 07:30:35;;;;;;;12.33;11.03;;;;;;;22.82;63.50;95308.58;1831739;78;21514;-66
2022/07/27 07:33:02;;;;;;;13.20;10.32;;;;;;;22.90;63.02;95312.92;1832207;78;21009;-66
2022/07/27 07:35:29;;;;;;;10.98;9.88;;;;;;;23.01;63.13;95303.64;1831850;78;21045;-66
2022/07/27 07:37:56;;;;;;;10.28;9.18;;;;;;;23.20;62.65;95303.14;1832057;78;20950;-66
2022/07/27 07:40:24;;;;;;;11.53;9.43;;;;;;;23.40;61.99;95298.13;1831987;78;21068;-66
2022/07/27 07:43:01;;;;;;;12.20;9.53;;;;;;;23.58;61.92;95302.13;1828935;78;21532;-66
2022/07/27 07:45:30;;;;;;;11.10;9.33;;;;;;;23.78;60.59;95307.90;1826267;78;21002;-66
2022/07/27 07:47:57;;;;;;;9.98;8.90;;;;;;;23.87;59.67;95297.29;1826112;78;21021;-66
2022/07/27 07:50:24;;;;;;;9.53;8.55;;;;;;;24.00;59.51;95301.75;1826084;78;20951;-66
2022/07/27 07:52:52;;;;;;;9.40;8.50;;;;;;;24.10;58.30;95310.34;1826203;78;21097;-66
2022/07/27 07:55:26;;;;;;;10.15;8.08;;;;;;;24.18;57.37;95306.56;1826015;78;21041;-66
2022/07/27 07:57:53;;;;;;;9.15;7.80;;;;;;;24.31;57.28;95306.48;1825942;78;21021;-66
2022/07/27 08:00:20;;;;;;;9.20;8.30;;;;;;;24.38;56.52;95305.52;1825853;78;21018;-66
2022/07/27 08:02:53;;;;;;;10.48;7.20;;;;;;;24.43;56.74;95307.38;1826079;78;21502;-65
2022/07/27 08:05:20;;;;;;;;;;;;;;;24.52;56.15;95311.20;1828962;78;21534;-66
2022/07/27 08:07:49;;;;;;;9.05;7.30;;;;;;;24.50;55.02;95318.58;1826115;78;20105;-65
2022/07/27 08:10:18;;;;;;;9.43;6.90;;;;;;;24.54;54.84;95316.84;1826075;78;21007;-65
2022/07/27 08:12:48;;;;;;;9.33;6.97;;;;;;;24.58;54.74;95314.29;1825947;78;21018;-65
2022/07/27 08:15:16;;;;;;;7.70;7.00;;;;;;;24.65;55.18;95321.42;1826123;78;20994;-65
2022/07/27 08:17:44;;;;;;;8.30;7.33;;;;;;;24.64;54.99;95325.58;1826111;78;20958;-66
2022/07/27 08:20:13;;;;;;;7.80;6.75;;;;;;;24.77;54.63;95327.66;1825841;78;21057;-66
2022/07/27 08:22:41;;;;;;;7.33;6.62;;;;;;;24.81;53.97;95333.20;1826145;78;20982;-66
2022/07/27 08:25:10;;;;;;;7.53;6.53;;;;;;;24.89;53.44;95332.09;1826222;78;20985;-66
2022/07/27 08:27:37;;;;;;;8.43;6.78;;;;;;;24.99;54.05;95336.27;1826044;78;20991;-66
2022/07/27 08:30:06;;;;;;;9.63;6.85;;;;;;;25.25;53.29;95336.92;1826173;78;21479;-66
2022/07/27 08:32:47;;;;;;;7.53;5.90;;;;;;;25.39;53.01;95333.94;1826229;78;21487;-66
2022/07/27 08:35:17;;;;;;;8.13;6.25;;;;;;;25.68;51.67;95337.46;1826276;78;21479;-66
2022/07/27 08:37:44;;;;;;;8.95;5.90;;;;;;;25.87;50.96;95344.41;1826052;78;21025;-66
2022/07/27 08:40:12;;;;;;;6.47;5.50;;;;;;;25.85;49.72;95342.33;1826064;78;21004;-66
2022/07/27 08:42:42;;;;;;;6.10;5.50;;;;;;;25.53;50.49;95342.75;1827370;78;21061;-65
2022/07/27 08:45:12;;;;;;;6.65;6.05;;;;;;;25.22;51.50;95343.44;1831926;78;21514;-66
2022/07/27 08:47:41;;;;;;;6.70;6.10;;;;;;;25.20;51.83;95344.05;1800941;78;21049;-66
2022/07/27 08:50:23;;;;;;;7.15;5.35;;;;;;;25.09;52.09;95348.55;1832054;78;20974;-66
2022/07/27 08:53:03;;;;;;;7.78;4.90;;;;;;;25.19;51.59;95347.70;1832195;78;21017;-66
2022/07/27 08:55:34;;;;;;;6.58;5.65;;;;;;;25.38;50.78;95348.44;1831984;78;21057;-66
2022/07/27 08:58:02;;;;;;;5.78;5.28;;;;;;;25.31;50.69;95351.27;1831100;78;21002;-66
2022/07/27 09:00:30;;;;;;;5.37;4.65;;;;;;;25.48;51.27;95352.11;1831550;78;21085;-66
2022/07/27 09:02:57;;;;;;;5.92;4.90;;;;;;;25.82;51.16;95358.77;1831869;78;20982;-66
2022/07/27 09:05:24;;;;;;;5.75;4.75;;;;;;;25.90;50.24;95356.34;1831846;78;21523;-65
2022/07/27 09:07:51;;;;;;;5.28;4.55;;;;;;;26.03;49.62;95353.94;1832097;78;21021;-66
2022/07/27 09:10:34;;;;;;;6.37;4.40;;;;;;;26.15;49.19;95358.82;1831612;78;21060;-65
2022/07/27 09:13:23;;;;;;;4.20;3.90;;;;;;;26.26;47.95;95357.44;1831953;78;20970;-66
2022/07/27 09:15:57;;;;;;;4.40;4.10;;;;;;;26.34;48.80;95357.64;1831996;78;21466;-66
2022/07/27 09:18:28;;;;;;;4.15;3.85;;;;;;;26.56;47.88;95344.53;1831174;78;21526;-65
2022/07/27 09:21:22;;;;;;;4.42;3.90;;;;;;;26.72;47.40;95345.41;1832175;78;21006;-65
2022/07/27 09:23:59;;;;;;;4.22;3.83;;;;;;;26.40;46.32;95355.75;1726733;83;20992;-65
2022/07/27 09:26:28;;;;;;;4.12;3.60;;;;;;;26.20;47.61;95352.03;1726846;83;21053;-65
2022/07/27 09:28:58;;;;;;;4.05;3.42;;;;;;;26.41;46.34;95356.60;1778452;78;21053;-65
2022/07/27 09:31:25;;;;;;;4.10;3.70;;;;;;;26.60;45.83;95345.11;1832131;78;21044;-65
2022/07/27 09:33:55;;;;;;;3.83;3.52;;;;;;;26.83;45.16;95351.22;1831937;78;20958;-65
2022/07/27 09:36:25;;;;;;;4.20;3.50;;;;;;;27.01;43.86;95354.16;1832205;78;20963;-65
2022/07/27 09:39:02;;;;;;;4.10;3.80;;;;;;;27.08;44.53;95353.49;1832043;78;21078;-65
2022/07/27 09:41:44;;;;;;;7.78;3.80;;;;;;;27.20;43.97;95352.95;1832162;78;20977;-65
2022/07/27 09:44:12;;;;;;;6.92;3.52;;;;;;;27.40;43.31;95354.73;1827633;78;21049;-65
2022/07/27 10:00:26;;;;;;;3.70;2.80;;;;;;;28.54;38.55;95362.52;1810873;78;21451;-65
2022/07/27 10:02:54;;;;;;;3.45;3.17;;;;;;;28.42;37.76;95363.12;1827757;78;21668;-66
2022/07/27 10:05:21;;;;;;;4.08;3.12;;;;;;;28.38;38.81;95359.00;1780469;80;21010;-65
2022/07/27 10:07:49;;;;;;;3.87;3.20;;;;;;;28.60;38.30;95351.95;1739472;81;21054;-66
2022/07/27 10:10:16;;;;;;;8.45;3.52;;;;;;;28.75;38.91;95356.40;1784759;80;21460;-66
2022/07/27 10:12:43;;;;;;;3.75;3.40;;;;;;;28.81;37.69;95354.98;1750952;81;21015;-66
2022/07/27 10:15:11;;;;;;;3.70;3.30;;;;;;;29.00;38.00;95346.77;1774770;81;21484;-66
2022/07/27 10:17:40;;;;;;;3.90;3.60;;;;;;;29.21;37.32;95340.33;1780629;80;21025;-66
2022/07/27 10:20:10;;;;;;;5.53;4.83;;;;;;;29.41;37.31;95347.38;1734625;81;21108;-65
2022/07/27 10:22:55;;;;;;;4.75;4.35;;;;;;;29.34;38.47;95352.55;1745370;81;21520;-66
2022/07/27 10:25:24;;;;;;;5.28;4.87;;;;;;;29.22;39.01;95344.23;1773110;80;21494;-65
2022/07/27 10:28:15;;;;;;;4.72;4.33;;;;;;;29.14;39.40;95359.06;1739123;81;21525;-65
2022/07/27 10:30:41;;;;;;;5.10;4.60;;;;;;;29.05;40.05;95352.64;1741733;81;21567;-65
2022/07/27 10:33:35;;;;;;;4.92;4.53;;;;;;;29.18;39.92;95342.84;1769236;80;21050;-65
2022/07/27 10:36:03;;;;;;;7.45;4.70;;;;;;;29.37;38.92;95351.91;1773134;80;21015;-66
2022/07/27 10:38:49;;;;;;;6.87;5.08;;;;;;;29.32;39.36;95347.77;1771900;80;21066;-66
2022/07/27 10:41:33;;;;;;;5.28;4.87;;;;;;;29.48;38.83;95353.94;1786510;80;21030;-65
2022/07/27 10:44:25;;;;;;;6.20;5.17;;;;;;;29.74;38.66;95346.46;1788629;80;21075;-66
2022/07/27 10:47:00;;;;;;;7.08;4.70;;;;;;;29.95;38.09;95349.74;1775413;80;21027;-66
2022/07/27 10:49:36;;;;;;;7.28;5.28;;;;;;;29.85;37.48;95348.95;1775636;80;21491;-66
2022/07/27 10:52:04;;;;;;;5.17;4.70;;;;;;;29.58;38.66;95349.78;1775640;80;20993;-66
2022/07/27 10:54:38;;;;;;;7.87;4.58;;;;;;;29.56;38.12;95359.98;1807466;78;21025;-66
2022/07/27 10:57:07;;;;;;;5.37;4.08;;;;;;;29.59;37.92;95357.47;1771863;80;21013;-66
2022/07/27 10:59:45;;;;;;;4.85;4.40;;;;;;;29.73;36.96;95349.66;1733915;82;21029;-66
2022/07/27 11:02:16;;;;;;;6.40;4.17;;;;;;;29.76;36.68;95352.58;1742711;81;21523;-66
2022/07/27 11:04:49;;;;;;;5.50;4.60;;;;;;;29.86;36.99;95345.72;1762557;80;21041;-66
2022/07/27 11:07:23;;;;;;;6.70;4.50;;;;;;;30.11;37.26;95342.77;1753236;81;21524;-66
2022/07/27 11:09:51;;;;;;;5.17;4.50;;;;;;;30.16;36.35;95338.59;1746482;81;21026;-66
2022/07/27 11:12:19;;;;;;;4.62;4.22;;;;;;;30.19;36.88;95340.14;1761804;80;20982;-66
2022/07/27 11:14:52;;;;;;;4.62;4.10;;;;;;;30.31;36.20;95333.98;1784779;80;21050;-66
2022/07/27 11:17:23;;;;;;;4.80;4.35;;;;;;;30.47;35.55;95335.50;1764143;80;21065;-66
2022/07/27 11:19:59;;;;;;;5.53;4.53;;;;;;;30.46;35.49;95341.94;1754325;82;21066;-66
2022/07/27 11:22:38;;;;;;;5.92;4.30;;;;;;;30.25;35.67;95335.46;1743932;81;21020;-66
2022/07/27 11:25:06;;;;;;;5.30;4.62;;;;;;;30.25;36.62;95332.73;1763379;80;20978;-66
2022/07/27 11:27:47;;;;;;;4.42;4.03;;;;;;;30.35;35.68;95330.79;1763463;80;21543;-66
2022/07/27 11:30:25;;;;;;;4.30;4.00;;;;;;;30.08;36.17;95337.64;1762126;80;21129;-66
2022/07/27 11:32:52;;;;;;;4.22;3.55;;;;;;;30.12;35.84;95333.61;1764561;80;21078;-66
2022/07/27 11:35:19;;;;;;;5.67;4.42;;;;;;;30.20;35.50;95327.73;1767535;80;20990;-66
2022/07/27 11:38:02;;;;;;;5.12;4.20;;;;;;;30.45;35.01;95327.14;1746194;81;21479;-66
2022/07/27 11:40:49;;;;;;;4.30;3.92;;;;;;;30.77;35.30;95322.44;1736350;80;21006;-66
2022/07/27 11:43:38;;;;;;;5.78;3.98;;;;;;;30.94;34.17;95327.02;1732223;82;21053;-66
2022/07/27 11:46:18;;;;;;;4.17;3.77;;;;;;;31.15;33.87;95320.36;1743046;81;21026;-66
2022/07/27 11:49:00;;;;;;;4.87;3.67;;;;;;;31.12;33.10;95326.10;1763163;80;21451;-66
2022/07/27 11:51:28;;;;;;;7.05;3.50;;;;;;;30.51;33.59;95321.05;1785172;80;21022;-66
2022/07/27 11:54:00;;;;;;;5.25;3.70;;;;;;;30.46;34.45;95326.96;1768391;80;21548;-66
2022/07/27 11:56:31;;;;;;;4.05;3.67;;;;;;;30.86;33.46;95322.88;1763488;80;21037;-66
2022/07/27 11:59:20;;;;;;;3.83;3.52;;;;;;;31.14;32.92;95325.44;1734683;81;21546;-66
2022/07/27 12:01:57;;;;;;;4.10;3.70;;;;;;;31.17;32.50;95331.92;1734031;81;21046;-66
2022/07/27 12:04:31;;;;;;;6.10;3.45;;;;;;;31.17;32.67;95336.02;1733883;81;21010;-66
2022/07/27 12:07:03;;;;;;;3.62;3.33;;;;;;;31.23;32.53;95324.48;1731425;82;21057;-66
2022/07/27 12:09:34;;;;;;;4.50;3.62;;;;;;;30.45;33.27;95332.58;1765748;80;21022;-66